Startpagina
METAR-TAF:

METAR-TAF

Vliegvelden :

Schaffen

Diest, België

breedte: 51-00N, lengte: 005-04E, hoogte: 30 m

Actueel weer

Dit bericht is 34 minuten geleden gemaakt, om 18:25 UTC
Wind 6 kt uit het zuidzuidwesten
Temperatuur 6°C
Vochtigheid 93%
Druk 1023 hPa
Zicht 10 km of meer

METAR: EBDT 171825Z AUTO 20006KT 9999 NCD 06/05 Q1023 BLU

Tijdstip: 19:59 (18:59 UTC)

Verwachting

Dit bericht is 7 uur en het 18 minuten geleden gemaakt, om 11:41 UTC
Verwachting geldig van 17 om 13 UTC tot 17 om 22 UTC
Wind 8 kt uit het westzuidwesten
Zicht 10 km of meer
Weinig wolken op 1000 ft
Wijzigt naar
van 17 om 17 UTC tot 17 om 19 UTC
Wind 6 kt uit het zuidzuidwesten
Weinig wolken op 600 ft

TAF: EBDT 171141Z 1713/1722 24008KT 9999 FEW010 BECMG 1717/1719 21006KT FEW006

Waarnemingen en weersverwachtingen van meer dan 4000 vliegvelden (METAR en TAF).

De beschikbare stations zijn de gele en rode punten op de kaart.

Ga met uw muis naar het station om de naam te zien.

Klik dan om waarnemingen en weersverwachtingen te zien.

kaart wijzigen: klik op de groene knoppen met een zwart kruis om in te zoomen, op de groene knop met een streepje om uit te zoomen of op de groene pijlen voor aangrenzende kaarten.


METAR-TAF: